createdAt,value
2018-08-11T00:02:33.665Z,1.80
2018-08-11T00:05:36.957Z,2.20
2018-08-11T00:08:40.255Z,2.00
2018-08-11T00:11:44.043Z,1.60
2018-08-11T00:14:47.598Z,1.80
2018-08-11T00:17:50.831Z,1.73
2018-08-11T00:20:54.060Z,2.00
2018-08-11T00:23:57.341Z,1.77
2018-08-11T00:27:00.651Z,1.90
2018-08-11T00:30:05.050Z,1.57
2018-08-11T00:33:08.380Z,2.00
2018-08-11T00:36:11.706Z,1.70
2018-08-11T00:39:14.976Z,1.80
2018-08-11T00:42:21.653Z,1.90
2018-08-11T00:45:25.312Z,1.70
2018-08-11T00:48:28.519Z,1.80
2018-08-11T00:51:31.816Z,1.70
2018-08-11T00:54:35.164Z,1.83
2018-08-11T00:57:38.748Z,1.37
2018-08-11T01:00:42.031Z,1.60
2018-08-11T01:03:45.984Z,1.73
2018-08-11T01:06:49.287Z,1.50
2018-08-11T01:09:52.560Z,1.67
2018-08-11T01:12:55.834Z,1.50
2018-08-11T01:15:59.079Z,1.80
2018-08-11T01:19:02.447Z,1.80
2018-08-11T01:22:05.727Z,1.77
2018-08-11T01:25:09.745Z,1.80
2018-08-11T01:28:13.027Z,2.30
2018-08-11T01:31:16.919Z,1.90
2018-08-11T01:34:20.210Z,1.53
2018-08-11T01:37:23.452Z,1.53
2018-08-11T01:40:26.783Z,1.50
2018-08-11T01:43:30.032Z,1.60
2018-08-11T01:46:33.361Z,1.50
2018-08-11T01:49:36.654Z,1.70
2018-08-11T01:52:41.158Z,1.80
2018-08-11T01:55:44.921Z,1.30
2018-08-11T01:58:48.227Z,1.70
2018-08-11T02:01:51.563Z,1.60
2018-08-11T02:04:54.876Z,1.30
2018-08-11T02:07:58.177Z,1.63
2018-08-11T02:11:01.459Z,1.40
2018-08-11T02:14:04.802Z,1.67
2018-08-11T02:17:08.070Z,1.50
2018-08-11T02:20:13.338Z,1.37
2018-08-11T02:23:16.697Z,1.50
2018-08-11T02:26:19.996Z,1.57
2018-08-11T02:29:23.266Z,1.40
2018-08-11T02:32:26.503Z,1.60
2018-08-11T02:35:29.802Z,1.60
2018-08-11T02:38:33.095Z,1.20
2018-08-11T02:41:36.440Z,1.40
2018-08-11T02:44:39.591Z,1.40
2018-08-11T02:47:42.891Z,1.37
2018-08-11T02:50:47.268Z,1.40
2018-08-11T02:53:50.688Z,1.50
2018-08-11T02:56:53.987Z,1.57
2018-08-11T02:59:57.172Z,1.83
2018-08-11T03:03:00.530Z,1.40
2018-08-11T03:06:04.103Z,1.57
2018-08-11T03:09:08.228Z,1.40
2018-08-11T03:12:11.633Z,1.50
2018-08-11T03:15:17.022Z,1.60
2018-08-11T03:18:20.270Z,1.60
2018-08-11T03:21:23.560Z,1.50
2018-08-11T03:24:27.213Z,1.57
2018-08-11T03:27:30.467Z,1.50
2018-08-11T03:30:33.986Z,1.53
2018-08-11T03:33:37.236Z,1.77
2018-08-11T03:36:40.541Z,1.33
2018-08-11T03:39:44.159Z,1.43
2018-08-11T03:42:47.443Z,1.27
2018-08-11T03:45:50.732Z,1.80
2018-08-11T03:48:54.035Z,1.33
2018-08-11T03:51:57.381Z,1.70
2018-08-11T03:55:00.616Z,1.90
2018-08-11T03:58:03.818Z,1.80
2018-08-11T04:01:07.158Z,1.83
2018-08-11T04:04:10.432Z,1.80
2018-08-11T04:07:14.200Z,1.57
2018-08-11T04:10:17.418Z,1.70
2018-08-11T04:13:20.622Z,1.87
2018-08-11T04:16:23.945Z,1.70
2018-08-11T04:19:27.250Z,1.70
2018-08-11T04:22:30.535Z,1.80
2018-08-11T04:25:33.851Z,1.60
2018-08-11T04:28:37.141Z,1.40
2018-08-11T04:31:40.380Z,1.47
2018-08-11T04:34:44.198Z,1.50
2018-08-11T04:37:47.444Z,1.60
2018-08-11T04:40:50.739Z,1.83
2018-08-11T04:43:54.039Z,1.43
2018-08-11T04:46:57.295Z,1.50
2018-08-11T04:50:00.499Z,1.50
2018-08-11T04:53:03.808Z,1.40
2018-08-11T04:56:07.303Z,1.70
2018-08-11T04:59:10.500Z,1.50
2018-08-11T05:02:14.356Z,1.50
2018-08-11T05:05:18.132Z,1.50
2018-08-11T05:08:21.299Z,1.97
2018-08-11T05:11:24.735Z,1.83
2018-08-11T05:14:28.053Z,2.07
2018-08-11T05:17:31.286Z,1.90
2018-08-11T05:20:34.642Z,2.17
2018-08-11T05:23:37.896Z,1.50
2018-08-11T05:26:41.223Z,1.93
2018-08-11T05:29:45.075Z,1.87
2018-08-11T05:32:48.323Z,1.97
2018-08-11T05:35:51.528Z,1.80
2018-08-11T05:38:54.850Z,1.60
2018-08-11T05:41:58.148Z,1.57
2018-08-11T05:45:01.341Z,2.20
2018-08-11T05:48:04.612Z,1.70
2018-08-11T05:51:08.082Z,1.83
2018-08-11T05:54:11.430Z,1.87
2018-08-11T05:57:14.675Z,1.70
2018-08-11T06:00:17.859Z,1.57
2018-08-11T06:03:21.184Z,1.50
2018-08-11T06:06:24.553Z,1.27
2018-08-11T06:09:27.773Z,1.97
2018-08-11T06:12:31.078Z,1.60
2018-08-11T06:15:34.200Z,1.53
2018-08-11T06:18:37.456Z,1.60
2018-08-11T06:21:40.783Z,1.60
2018-08-11T06:24:44.022Z,1.53
2018-08-11T06:27:47.196Z,1.33
2018-08-11T06:30:50.359Z,1.40
2018-08-11T06:33:53.484Z,1.63
2018-08-11T06:36:56.780Z,1.43
2018-08-11T06:40:00.794Z,1.43
2018-08-11T06:43:04.021Z,1.40
2018-08-11T06:46:07.228Z,1.50
2018-08-11T06:49:10.501Z,1.57
2018-08-11T06:52:13.880Z,1.57
2018-08-11T06:55:17.185Z,1.60
2018-08-11T06:58:20.469Z,1.30
2018-08-11T07:01:23.694Z,1.23
2018-08-11T07:04:26.911Z,1.20
2018-08-11T07:07:30.768Z,1.40
2018-08-11T07:10:33.943Z,1.10
2018-08-11T07:13:37.196Z,1.20
2018-08-11T07:16:40.468Z,1.30
2018-08-11T07:19:43.651Z,1.30
2018-08-11T07:22:46.852Z,1.43
2018-08-11T07:25:50.011Z,1.10
2018-08-11T07:28:53.236Z,1.37
2018-08-11T07:31:56.511Z,1.10
2018-08-11T07:35:00.664Z,1.20
2018-08-11T07:38:03.904Z,1.20
2018-08-11T07:41:07.125Z,1.60
2018-08-11T07:44:10.320Z,1.20
2018-08-11T07:47:13.618Z,1.37
2018-08-11T07:50:16.941Z,1.27
2018-08-11T07:53:20.312Z,1.50
2018-08-11T07:56:23.599Z,1.60
2018-08-11T07:59:26.912Z,1.27
2018-08-11T08:02:30.709Z,1.67
2018-08-11T08:05:33.999Z,1.50
2018-08-11T08:08:37.179Z,1.40
2018-08-11T08:11:40.759Z,1.03
2018-08-11T08:14:43.995Z,1.40
2018-08-11T08:17:47.179Z,1.17
2018-08-11T08:20:50.498Z,1.40
2018-08-11T08:23:53.616Z,1.50
2018-08-11T08:26:56.891Z,1.33
2018-08-11T08:30:00.109Z,1.23
2018-08-11T08:33:03.386Z,1.47
2018-08-11T08:36:06.600Z,1.40
2018-08-11T08:39:11.400Z,1.30
2018-08-11T08:42:14.591Z,1.40
2018-08-11T08:45:18.501Z,1.23
2018-08-11T08:48:21.691Z,1.40
2018-08-11T08:51:24.956Z,1.50
2018-08-11T08:54:28.112Z,1.53
2018-08-11T08:57:31.289Z,1.40
2018-08-11T09:00:36.170Z,1.70
2018-08-11T09:03:39.387Z,1.30
2018-08-11T09:06:42.598Z,1.80
2018-08-11T09:09:45.977Z,1.70
2018-08-11T09:12:49.211Z,1.53
2018-08-11T09:15:54.507Z,1.37
2018-08-11T09:18:57.993Z,1.30
2018-08-11T09:22:01.275Z,1.43
2018-08-11T09:25:05.387Z,1.50
2018-08-11T09:28:08.630Z,1.73
2018-08-11T09:31:12.066Z,1.60
2018-08-11T09:34:15.355Z,1.50
2018-08-11T09:37:18.579Z,1.60
2018-08-11T09:40:21.875Z,1.60
2018-08-11T09:43:25.172Z,1.70
2018-08-11T09:46:28.478Z,1.50
2018-08-11T09:49:31.770Z,1.43
2018-08-11T09:52:35.365Z,1.63
2018-08-11T09:55:38.961Z,1.40
2018-08-11T10:01:13.854Z,1.40
2018-08-11T10:04:17.130Z,1.43
2018-08-11T10:10:49.116Z,1.20
2018-08-11T10:13:52.519Z,1.63
2018-08-11T10:16:55.852Z,1.47
2018-08-11T10:19:59.035Z,1.60
2018-08-11T10:23:02.351Z,1.33
2018-08-11T10:26:05.728Z,1.50
2018-08-11T10:29:09.004Z,1.33
2018-08-11T10:32:12.336Z,1.40
2018-08-11T10:35:15.579Z,1.27
2018-08-11T10:38:18.916Z,1.40
2018-08-11T10:41:22.167Z,1.50
2018-08-11T10:44:25.513Z,1.70
2018-08-11T10:47:28.814Z,1.33
2018-08-11T10:50:32.828Z,1.40
2018-08-11T10:53:36.155Z,1.50
2018-08-11T10:56:39.385Z,1.40
2018-08-11T10:59:42.720Z,1.70
2018-08-11T11:02:46.991Z,1.50
2018-08-11T11:05:50.319Z,1.47
2018-08-11T11:08:54.641Z,1.20
2018-08-11T11:11:57.832Z,1.50
2018-08-11T11:15:01.166Z,1.30
2018-08-11T11:18:05.499Z,1.50
2018-08-11T11:21:08.788Z,1.37
2018-08-11T11:24:12.252Z,1.30
2018-08-11T11:27:15.655Z,1.30
2018-08-11T11:30:18.983Z,1.53
2018-08-11T11:33:22.272Z,1.30
2018-08-11T11:36:25.678Z,1.30
2018-08-11T11:39:29.004Z,1.47
2018-08-11T11:42:32.378Z,1.37
2018-08-11T11:45:35.642Z,1.33
2018-08-11T11:48:38.971Z,1.10
2018-08-11T11:51:42.250Z,1.10
2018-08-11T11:54:45.547Z,0.97
2018-08-11T11:57:48.823Z,1.20
2018-08-11T12:00:52.159Z,1.30
2018-08-11T12:03:55.406Z,1.10
2018-08-11T12:06:58.711Z,1.00
2018-08-11T12:10:02.040Z,1.13
2018-08-11T12:13:05.669Z,1.10
2018-08-11T12:16:08.801Z,1.20
2018-08-11T12:19:12.114Z,1.13
2018-08-11T12:22:15.294Z,1.17
2018-08-11T12:25:18.619Z,1.37
2018-08-11T12:28:21.953Z,1.13
2018-08-11T12:31:25.199Z,1.10
2018-08-11T12:34:29.681Z,1.00
2018-08-11T12:37:32.933Z,1.10
2018-08-11T12:40:36.287Z,1.20
2018-08-11T12:43:39.503Z,0.90
2018-08-11T12:46:42.769Z,0.93
2018-08-11T12:49:46.174Z,1.00
2018-08-11T12:52:49.438Z,1.10
2018-08-11T12:55:52.654Z,1.10
2018-08-11T12:58:56.150Z,1.17
2018-08-11T13:02:00.481Z,1.20
2018-08-11T13:05:04.718Z,1.13
2018-08-11T13:08:08.998Z,0.93
2018-08-11T13:11:12.527Z,1.10
2018-08-11T13:14:15.812Z,1.10
2018-08-11T13:17:19.093Z,1.00
2018-08-11T13:20:22.366Z,1.30
2018-08-11T13:23:25.675Z,1.10
2018-08-11T13:26:29.028Z,1.13
2018-08-11T13:29:32.914Z,1.10
2018-08-11T13:32:36.192Z,0.80
2018-08-11T13:35:40.063Z,0.90
2018-08-11T13:38:43.373Z,1.17
2018-08-11T13:41:48.964Z,1.10
2018-08-11T13:44:52.163Z,0.83
2018-08-11T13:47:55.423Z,1.00
2018-08-11T13:50:58.703Z,0.93
2018-08-11T13:54:02.255Z,1.13
2018-08-11T13:57:05.683Z,1.00
2018-08-11T14:00:10.046Z,1.20
2018-08-11T14:03:13.255Z,1.13
2018-08-11T14:06:16.573Z,0.90
2018-08-11T14:09:20.362Z,1.10
2018-08-11T14:12:23.578Z,1.00
2018-08-11T14:15:26.882Z,0.83
2018-08-11T14:18:30.207Z,1.00
2018-08-11T14:21:33.468Z,0.83
2018-08-11T14:24:36.804Z,1.07
2018-08-11T14:27:40.069Z,0.90
2018-08-11T14:30:43.348Z,1.10
2018-08-11T14:33:46.681Z,1.00
2018-08-11T14:36:50.662Z,1.00
2018-08-11T14:39:53.971Z,1.07
2018-08-11T14:42:57.295Z,0.90
2018-08-11T14:46:00.722Z,0.93
2018-08-11T14:49:04.304Z,1.03
2018-08-11T14:52:07.579Z,1.07
2018-08-11T14:55:10.839Z,1.10
2018-08-11T14:58:14.654Z,1.10
2018-08-11T15:01:18.814Z,0.90
2018-08-11T15:04:22.463Z,1.17
2018-08-11T15:07:25.855Z,0.87
2018-08-11T15:10:29.188Z,0.90
2018-08-11T15:13:32.559Z,1.03
2018-08-11T15:16:36.311Z,0.93
2018-08-11T15:19:39.596Z,1.17
2018-08-11T15:22:43.752Z,1.00
2018-08-11T15:25:47.039Z,1.13
2018-08-11T15:28:50.291Z,1.10
2018-08-11T15:31:53.616Z,1.20
2018-08-11T15:34:56.900Z,1.13
2018-08-11T15:38:00.198Z,1.00
2018-08-11T15:41:03.483Z,1.20
2018-08-11T15:44:07.054Z,1.00
2018-08-11T15:47:10.515Z,1.20
2018-08-11T15:50:14.796Z,1.10
2018-08-11T15:53:18.093Z,1.00
2018-08-11T15:56:22.486Z,0.87
2018-08-11T15:59:25.807Z,1.40
2018-08-11T16:02:29.053Z,1.00
2018-08-11T16:05:32.359Z,1.20
2018-08-11T16:08:35.673Z,1.30
2018-08-11T16:11:38.965Z,1.10
2018-08-11T16:14:42.318Z,1.30
2018-08-11T16:17:46.895Z,1.30
2018-08-11T16:20:51.402Z,1.00
2018-08-11T16:23:54.696Z,1.03
2018-08-11T16:26:58.023Z,1.30
2018-08-11T16:30:01.159Z,1.10
2018-08-11T16:33:04.416Z,1.13
2018-08-11T16:36:07.782Z,0.90
2018-08-11T16:39:11.115Z,1.00
2018-08-11T16:42:14.499Z,0.97
2018-08-11T16:45:17.777Z,1.10
2018-08-11T16:48:21.955Z,1.00
2018-08-11T16:51:25.267Z,1.00
2018-08-11T16:54:28.698Z,1.00
2018-08-11T16:57:31.995Z,0.83
2018-08-11T17:00:35.136Z,0.93
2018-08-11T17:03:38.381Z,1.10
2018-08-11T17:06:42.379Z,0.97
2018-08-11T17:09:46.434Z,0.80
2018-08-11T17:12:49.817Z,1.03
2018-08-11T17:15:53.113Z,0.87
2018-08-11T17:18:56.398Z,1.00
2018-08-11T17:21:59.803Z,1.10
2018-08-11T17:25:03.181Z,0.90
2018-08-11T17:28:06.425Z,1.00
2018-08-11T17:31:09.721Z,1.00
2018-08-11T17:34:12.995Z,1.10
2018-08-11T17:37:17.209Z,1.20
2018-08-11T17:40:20.515Z,1.00
2018-08-11T17:43:23.808Z,1.17
2018-08-11T17:46:27.203Z,1.20
2018-08-11T17:49:30.561Z,0.90
2018-08-11T17:52:33.873Z,1.13
2018-08-11T17:55:37.115Z,1.13
2018-08-11T17:58:47.288Z,1.10
2018-08-11T18:01:50.659Z,1.20
2018-08-11T18:04:53.984Z,1.00
2018-08-11T18:07:57.252Z,1.20
2018-08-11T18:11:00.438Z,1.10
2018-08-11T18:14:03.891Z,1.00
2018-08-11T18:17:07.327Z,1.20
2018-08-11T18:20:10.664Z,1.30
2018-08-11T18:23:13.953Z,1.27
2018-08-11T18:26:17.177Z,1.30
2018-08-11T18:29:20.439Z,1.33
2018-08-11T18:32:23.574Z,1.10
2018-08-11T18:35:27.771Z,1.57
2018-08-11T18:38:31.172Z,1.20
2018-08-11T18:41:34.459Z,1.23
2018-08-11T18:44:37.756Z,1.00
2018-08-11T18:47:42.160Z,1.20
2018-08-11T18:50:45.453Z,1.40
2018-08-11T18:53:48.791Z,1.10
2018-08-11T18:56:52.176Z,1.40
2018-08-11T18:59:55.577Z,1.30
2018-08-11T19:02:58.860Z,1.20
2018-08-11T19:06:01.994Z,1.23
2018-08-11T19:09:09.861Z,1.10
2018-08-11T19:12:14.085Z,1.30
2018-08-11T19:15:17.831Z,1.23
2018-08-11T19:18:21.134Z,1.30
2018-08-11T19:21:24.363Z,1.50
2018-08-11T19:24:27.705Z,1.60
2018-08-11T19:27:31.536Z,1.60
2018-08-11T19:30:34.780Z,1.60
2018-08-11T19:33:38.154Z,1.37
2018-08-11T19:36:41.639Z,1.50
2018-08-11T19:39:45.012Z,1.40
2018-08-11T19:42:48.303Z,1.40
2018-08-11T19:45:51.683Z,1.30
2018-08-11T19:48:54.988Z,1.40
2018-08-11T19:51:58.299Z,1.33
2018-08-11T19:55:01.689Z,1.57
2018-08-11T19:58:04.914Z,2.13
2018-08-11T20:01:09.039Z,1.53
2018-08-11T20:04:14.348Z,1.20
2018-08-11T20:07:17.679Z,1.63
2018-08-11T20:10:20.965Z,1.30
2018-08-11T20:13:24.341Z,1.40
2018-08-11T20:16:27.564Z,1.50
2018-08-11T20:19:30.957Z,1.73
2018-08-11T20:22:34.528Z,1.87
2018-08-11T20:25:37.970Z,1.50
2018-08-11T20:28:42.036Z,1.30
2018-08-11T20:31:45.349Z,1.60
2018-08-11T20:34:48.629Z,1.70
2018-08-11T20:37:52.076Z,1.53
2018-08-11T20:40:55.692Z,1.30
2018-08-11T20:43:59.010Z,1.40
2018-08-11T20:47:02.342Z,1.50
2018-08-11T20:50:06.335Z,1.70
2018-08-11T20:53:10.119Z,1.47
2018-08-11T20:56:13.589Z,1.53
2018-08-11T20:59:16.943Z,1.37
2018-08-11T21:02:20.144Z,1.50
2018-08-11T21:05:23.712Z,1.80
2018-08-11T21:08:27.019Z,2.07
2018-08-11T21:11:30.283Z,1.90
2018-08-11T21:14:33.672Z,1.73
2018-08-11T21:17:39.507Z,1.90
2018-08-11T21:20:42.719Z,2.00
2018-08-11T21:23:46.186Z,1.53
2018-08-11T21:26:49.678Z,1.93
2018-08-11T21:29:53.216Z,2.37
2018-08-11T21:32:56.542Z,2.10
2018-08-11T21:35:59.855Z,2.30
2018-08-11T21:39:03.263Z,2.40
2018-08-11T21:42:06.753Z,2.37
2018-08-11T21:45:10.359Z,1.97
2018-08-11T21:48:13.625Z,2.30
2018-08-11T21:51:16.935Z,2.50
2018-08-11T21:54:20.216Z,2.77
2018-08-11T21:57:23.394Z,2.60
2018-08-11T22:00:29.414Z,2.60
2018-08-11T22:03:32.775Z,2.70
2018-08-11T22:06:35.965Z,2.50
2018-08-11T22:09:40.039Z,2.43
2018-08-11T22:12:43.312Z,2.40
2018-08-11T22:15:46.691Z,2.97
2018-08-11T22:18:49.994Z,2.43
2018-08-11T22:21:53.298Z,2.80
2018-08-11T22:24:56.590Z,2.17
2018-08-11T22:27:59.918Z,2.63
2018-08-11T22:31:03.129Z,2.77
2018-08-11T22:34:07.495Z,2.90
2018-08-11T22:37:12.318Z,2.10
2018-08-11T22:40:15.804Z,2.47
2018-08-11T22:43:19.449Z,2.23
2018-08-11T22:46:22.729Z,2.17
2018-08-11T22:49:26.021Z,2.00
2018-08-11T22:52:29.227Z,2.17
2018-08-11T22:55:32.495Z,2.27
2018-08-11T22:58:35.783Z,2.27
2018-08-11T23:01:40.270Z,2.00
2018-08-11T23:04:44.790Z,2.20
2018-08-11T23:07:48.041Z,2.00
2018-08-11T23:10:51.353Z,2.40
2018-08-11T23:13:55.198Z,2.20
2018-08-11T23:16:58.447Z,1.90
2018-08-11T23:20:01.688Z,2.90
2018-08-11T23:23:05.031Z,2.40
2018-08-11T23:26:08.251Z,1.90
2018-08-11T23:29:11.794Z,2.20
2018-08-11T23:32:15.036Z,2.13
2018-08-11T23:35:18.252Z,1.93
2018-08-11T23:38:21.526Z,2.20
2018-08-11T23:41:25.021Z,1.83
2018-08-11T23:44:28.230Z,1.90
2018-08-11T23:47:31.871Z,2.30
2018-08-11T23:50:35.154Z,2.23
2018-08-11T23:53:38.379Z,1.87
2018-08-11T23:56:41.847Z,1.93
2018-08-11T23:59:45.195Z,1.90
